createdAt,value
2018-06-19T00:01:04.125Z,12.10
2018-06-19T00:03:38.268Z,12.10
2018-06-19T00:06:18.398Z,12.00
2018-06-19T00:08:53.872Z,12.00
2018-06-19T00:11:32.417Z,12.00
2018-06-19T00:14:07.192Z,11.90
2018-06-19T00:16:41.267Z,11.90
2018-06-19T00:19:50.737Z,11.90
2018-06-19T00:22:27.964Z,11.90
2018-06-19T00:25:11.152Z,11.80
2018-06-19T00:27:49.663Z,11.80
2018-06-19T00:30:23.934Z,11.80
2018-06-19T00:33:06.472Z,11.80
2018-06-19T00:35:40.717Z,11.80
2018-06-19T00:38:21.522Z,11.70
2018-06-19T00:40:55.714Z,11.70
2018-06-19T00:43:31.410Z,11.70
2018-06-19T00:46:05.467Z,11.70
2018-06-19T00:48:41.992Z,11.60
2018-06-19T00:51:15.356Z,11.60
2018-06-19T00:53:54.569Z,11.50
2018-06-19T00:56:36.795Z,11.50
2018-06-19T00:59:10.857Z,11.50
2018-06-19T01:01:48.219Z,11.50
2018-06-19T01:04:35.312Z,11.50
2018-06-19T01:07:07.997Z,11.40
2018-06-19T01:09:40.279Z,11.60
2018-06-19T01:14:43.988Z,11.30
2018-06-19T01:17:18.602Z,11.30
2018-06-19T01:19:52.054Z,11.30
2018-06-19T01:22:28.391Z,11.30
2018-06-19T01:25:02.010Z,11.30
2018-06-19T01:27:36.014Z,11.30
2018-06-19T01:30:11.948Z,11.20
2018-06-19T01:32:43.806Z,11.20
2018-06-19T01:35:20.032Z,11.20
2018-06-19T01:37:52.560Z,11.30
2018-06-19T01:40:24.755Z,11.30
2018-06-19T01:42:56.528Z,11.30
2018-06-19T01:45:28.833Z,11.30
2018-06-19T01:48:00.483Z,11.30
2018-06-19T01:50:35.679Z,11.30
2018-06-19T01:53:08.732Z,11.30
2018-06-19T01:55:43.589Z,11.40
2018-06-19T01:58:15.635Z,11.40
2018-06-19T02:00:53.281Z,11.40
2018-06-19T02:03:25.638Z,11.40
2018-06-19T02:06:01.639Z,11.40
2018-06-19T02:08:34.754Z,11.40
2018-06-19T02:11:17.442Z,11.30
2018-06-19T02:13:49.874Z,11.30
2018-06-19T02:16:23.208Z,11.30
2018-06-19T02:18:54.281Z,11.30
2018-06-19T02:21:26.869Z,11.30
2018-06-19T02:23:58.811Z,11.30
2018-06-19T02:26:31.488Z,11.30
2018-06-19T02:29:03.271Z,11.30
2018-06-19T02:31:34.891Z,11.30
2018-06-19T02:34:07.354Z,11.30
2018-06-19T02:36:40.883Z,11.40
2018-06-19T02:39:13.312Z,11.40
2018-06-19T02:41:55.779Z,11.40
2018-06-19T02:44:26.713Z,11.40
2018-06-19T02:46:58.473Z,11.50
2018-06-19T02:49:30.945Z,11.50
2018-06-19T02:52:03.832Z,11.50
2018-06-19T02:54:36.414Z,11.40
2018-06-19T02:57:11.818Z,11.40
2018-06-19T02:59:42.846Z,11.40
2018-06-19T03:02:21.592Z,11.40
2018-06-19T03:04:54.304Z,11.30
2018-06-19T03:07:36.389Z,11.30
2018-06-19T03:10:09.178Z,11.30
2018-06-19T03:12:40.674Z,11.30
2018-06-19T03:15:12.471Z,11.40
2018-06-19T03:17:47.568Z,11.50
2018-06-19T03:20:22.065Z,11.50
2018-06-19T03:22:57.344Z,11.60
2018-06-19T03:25:29.967Z,11.60
2018-06-19T03:28:12.226Z,11.70
2018-06-19T03:30:43.625Z,11.80
2018-06-19T03:33:21.862Z,11.90
2018-06-19T03:35:53.355Z,11.90
2018-06-19T03:38:24.934Z,12.00
2018-06-19T03:40:57.027Z,12.00
2018-06-19T03:43:29.911Z,12.00
2018-06-19T03:46:01.089Z,12.00
2018-06-19T03:48:43.715Z,12.10
2018-06-19T03:51:17.042Z,12.10
2018-06-19T03:53:47.854Z,12.20
2018-06-19T03:56:21.239Z,12.30
2018-06-19T03:58:54.057Z,12.30
2018-06-19T04:01:28.825Z,12.40
2018-06-19T04:03:59.970Z,12.50
2018-06-19T04:06:33.000Z,12.50
2018-06-19T04:09:06.016Z,12.60
2018-06-19T04:11:40.300Z,12.60
2018-06-19T04:14:11.572Z,12.70
2018-06-19T04:16:46.882Z,12.80
2018-06-19T04:19:20.246Z,12.90
2018-06-19T04:22:01.211Z,13.00
2018-06-19T04:24:33.194Z,13.10
2018-06-19T04:27:06.643Z,13.30
2018-06-19T04:29:38.736Z,13.30
2018-06-19T04:32:12.638Z,13.50
2018-06-19T04:34:44.653Z,13.60
2018-06-19T04:37:20.088Z,13.70
2018-06-19T04:39:53.920Z,13.80
2018-06-19T04:42:43.295Z,14.00
2018-06-19T04:48:21.316Z,14.20
2018-06-19T04:51:33.895Z,14.40
2018-06-19T05:02:51.301Z,15.10
2018-06-19T05:05:21.171Z,15.30
2018-06-19T05:07:50.859Z,15.40
2018-06-19T05:10:19.905Z,15.50
2018-06-19T05:12:48.856Z,15.60
2018-06-19T05:15:17.684Z,15.60
2018-06-19T05:17:46.609Z,15.70
2018-06-19T05:20:15.418Z,15.80
2018-06-19T05:22:44.308Z,15.90
2018-06-19T05:25:13.415Z,16.00
2018-06-19T05:27:42.301Z,16.00
2018-06-19T05:30:11.215Z,16.10
2018-06-19T05:32:40.065Z,16.20
2018-06-19T05:35:08.832Z,16.30
2018-06-19T05:37:37.669Z,16.40
2018-06-19T05:40:06.478Z,16.50
2018-06-19T05:42:35.396Z,16.60
2018-06-19T05:45:06.372Z,16.80
2018-06-19T05:47:35.270Z,16.90
2018-06-19T05:50:04.696Z,17.20
2018-06-19T05:52:34.580Z,17.40
2018-06-19T05:55:03.344Z,17.80
2018-06-19T05:57:32.104Z,17.90
2018-06-19T06:00:00.960Z,18.30
2018-06-19T06:02:29.669Z,18.40
2018-06-19T06:04:58.490Z,18.40
2018-06-19T06:07:27.436Z,18.40
2018-06-19T06:09:56.260Z,18.50
2018-06-19T06:12:25.002Z,18.60
2018-06-19T06:14:53.731Z,18.60
2018-06-19T06:17:22.572Z,18.80
2018-06-19T06:19:51.413Z,18.80
2018-06-19T06:22:20.179Z,18.90
2018-06-19T06:24:48.920Z,19.20
2018-06-19T06:27:17.656Z,19.60
2018-06-19T06:29:46.705Z,19.70
2018-06-19T06:32:15.541Z,19.70
2018-06-19T06:34:44.374Z,19.80
2018-06-19T06:37:13.118Z,19.90
2018-06-19T06:39:41.979Z,19.90
2018-06-19T06:42:11.706Z,20.00
2018-06-19T06:44:40.502Z,19.90
2018-06-19T06:47:09.397Z,20.00
2018-06-19T06:49:38.147Z,19.80
2018-06-19T06:52:06.986Z,19.80
2018-06-19T06:54:35.771Z,19.90
2018-06-19T06:57:06.433Z,19.90
2018-06-19T06:59:35.218Z,20.00
2018-06-19T07:02:04.875Z,20.10
2018-06-19T07:04:34.885Z,20.10
2018-06-19T07:07:05.315Z,20.20
2018-06-19T07:09:36.624Z,20.50
2018-06-19T07:12:05.896Z,20.50
2018-06-19T07:14:37.454Z,20.60
2018-06-19T07:17:07.420Z,20.70
2018-06-19T07:19:38.680Z,21.10
2018-06-19T07:22:08.184Z,21.20
2018-06-19T07:24:37.940Z,21.30
2018-06-19T07:27:08.006Z,21.30
2018-06-19T07:29:37.095Z,21.60
2018-06-19T07:32:06.444Z,21.80
2018-06-19T07:34:36.628Z,21.50
2018-06-19T07:37:07.092Z,22.10
2018-06-19T07:39:36.194Z,22.40
2018-06-19T07:42:05.859Z,22.60
2018-06-19T07:44:36.864Z,23.20
2018-06-19T07:47:07.196Z,24.00
2018-06-19T07:49:37.510Z,24.70
2018-06-19T07:52:07.483Z,25.70
2018-06-19T07:54:38.848Z,26.00
2018-06-19T07:57:07.840Z,26.10
2018-06-19T07:59:37.828Z,26.30
2018-06-19T08:02:06.861Z,26.60
2018-06-19T08:04:36.652Z,26.10
2018-06-19T08:07:10.103Z,26.80
2018-06-19T08:09:42.277Z,26.30
2018-06-19T08:12:12.020Z,26.10
2018-06-19T08:14:42.546Z,26.40
2018-06-19T08:17:11.614Z,26.90
2018-06-19T08:19:40.651Z,27.70
2018-06-19T08:22:10.832Z,26.90
2018-06-19T08:24:40.668Z,26.00
2018-06-19T08:27:09.718Z,26.40
2018-06-19T08:29:41.161Z,26.70
2018-06-19T08:32:10.810Z,27.40
2018-06-19T08:34:40.714Z,27.60
2018-06-19T08:37:15.509Z,26.30
2018-06-19T08:39:44.566Z,25.40
2018-06-19T08:42:14.808Z,25.70
2018-06-19T08:44:44.566Z,25.60
2018-06-19T08:47:14.289Z,26.00
2018-06-19T08:49:46.002Z,26.40
2018-06-19T08:52:15.208Z,26.60
2018-06-19T08:54:44.241Z,26.60
2018-06-19T08:57:14.292Z,25.40
2018-06-19T08:59:44.934Z,25.40
2018-06-19T09:02:14.492Z,25.50
2018-06-19T09:04:44.489Z,25.90
2018-06-19T09:07:14.385Z,25.90
2018-06-19T09:09:45.169Z,26.30
2018-06-19T09:12:17.650Z,26.40
2018-06-19T09:14:46.965Z,26.50
2018-06-19T09:17:15.952Z,26.00
2018-06-19T09:19:46.825Z,26.00
2018-06-19T09:22:17.109Z,25.60
2018-06-19T09:24:46.680Z,25.40
2018-06-19T09:27:15.688Z,25.50
2018-06-19T09:29:45.892Z,25.80
2018-06-19T09:32:14.938Z,25.40
2018-06-19T09:34:44.096Z,25.10
2018-06-19T09:37:13.878Z,25.30
2018-06-19T09:39:44.063Z,25.30
2018-06-19T09:42:15.125Z,25.20
2018-06-19T09:44:45.814Z,24.80
2018-06-19T09:47:15.313Z,24.50
2018-06-19T09:49:45.388Z,24.20
2018-06-19T09:52:16.267Z,23.80
2018-06-19T09:54:45.995Z,23.80
2018-06-19T09:57:16.169Z,23.50
2018-06-19T09:59:46.441Z,23.40
2018-06-19T10:02:17.154Z,23.50
2018-06-19T10:04:48.702Z,24.10
2018-06-19T10:07:21.527Z,24.70
2018-06-19T10:09:54.994Z,25.80
2018-06-19T10:12:25.304Z,26.80
2018-06-19T10:14:57.476Z,27.30
2018-06-19T10:17:26.664Z,27.30
2018-06-19T10:19:55.868Z,27.70
2018-06-19T10:22:25.748Z,27.70
2018-06-19T10:24:55.599Z,27.70
2018-06-19T10:27:26.596Z,27.40
2018-06-19T10:29:57.021Z,26.70
2018-06-19T10:32:26.988Z,26.30
2018-06-19T10:35:00.857Z,25.80
2018-06-19T10:37:31.211Z,25.40
2018-06-19T10:40:01.954Z,25.30
2018-06-19T10:42:30.968Z,24.50
2018-06-19T10:45:00.727Z,24.80
2018-06-19T10:47:30.114Z,24.60
2018-06-19T10:49:59.988Z,24.70
2018-06-19T10:52:29.484Z,24.70
2018-06-19T10:54:59.595Z,24.90
2018-06-19T10:57:29.738Z,25.10
2018-06-19T10:59:58.800Z,25.70
2018-06-19T11:02:28.184Z,26.30
2018-06-19T11:04:58.161Z,26.30
2018-06-19T11:07:30.939Z,26.60
2018-06-19T11:10:02.844Z,26.40
2018-06-19T11:12:33.393Z,26.30
2018-06-19T11:15:02.422Z,26.50
2018-06-19T11:17:33.111Z,26.30
2018-06-19T11:20:02.608Z,25.90
2018-06-19T11:22:34.584Z,26.10
2018-06-19T11:25:07.537Z,26.10
2018-06-19T11:27:37.869Z,26.20
2018-06-19T11:30:07.051Z,26.40
2018-06-19T11:32:37.455Z,26.80
2018-06-19T11:35:07.404Z,26.60
2018-06-19T11:37:38.598Z,27.70
2018-06-19T11:40:07.635Z,28.10
2018-06-19T11:42:38.537Z,27.40
2018-06-19T11:45:07.865Z,27.00
2018-06-19T11:47:37.068Z,26.60
2018-06-19T11:50:08.945Z,26.70
2018-06-19T11:52:38.234Z,27.30
2018-06-19T11:55:08.217Z,27.00
2018-06-19T11:57:38.683Z,26.70
2018-06-19T12:00:08.736Z,27.00
2018-06-19T12:02:38.725Z,27.50
2018-06-19T12:05:07.566Z,27.70
2018-06-19T12:07:40.592Z,27.50
2018-06-19T12:10:10.661Z,27.60
2018-06-19T12:12:41.343Z,27.70
2018-06-19T12:15:11.888Z,27.80
2018-06-19T12:17:43.164Z,27.30
2018-06-19T12:20:13.356Z,27.40
2018-06-19T12:22:43.405Z,26.70
2018-06-19T12:25:13.484Z,27.30
2018-06-19T12:27:43.050Z,27.80
2018-06-19T12:30:14.739Z,27.50
2018-06-19T12:32:43.795Z,27.50
2018-06-19T12:35:13.876Z,27.50
2018-06-19T12:37:43.780Z,28.00
2018-06-19T12:40:14.341Z,27.50
2018-06-19T12:42:43.405Z,27.50
2018-06-19T12:45:13.171Z,28.00
2018-06-19T12:47:42.594Z,28.90
2018-06-19T12:50:33.380Z,29.10
2018-06-19T12:53:14.022Z,29.30
2018-06-19T12:55:54.491Z,29.00
2018-06-19T12:58:26.790Z,28.80
2018-06-19T13:00:56.283Z,28.10
2018-06-19T13:03:36.704Z,27.90
2018-06-19T13:06:16.689Z,28.00
2018-06-19T13:08:47.061Z,28.00
2018-06-19T13:11:17.449Z,28.20
2018-06-19T13:13:59.138Z,28.40
2018-06-19T13:16:39.111Z,28.30
2018-06-19T13:19:23.847Z,28.10
2018-06-19T13:21:53.191Z,28.40
2018-06-19T13:24:24.605Z,28.20
2018-06-19T13:26:54.202Z,28.10
2018-06-19T13:29:47.232Z,28.30
2018-06-19T13:32:17.037Z,28.30
2018-06-19T13:34:46.723Z,28.60
2018-06-19T13:37:16.892Z,29.00
2018-06-19T13:39:46.769Z,28.90
2018-06-19T13:44:32.157Z,28.70
2018-06-19T13:47:01.976Z,28.60
2018-06-19T13:49:32.540Z,28.40
2018-06-19T13:52:02.772Z,28.20
2018-06-19T13:54:33.391Z,28.20
2018-06-19T13:57:22.837Z,28.40
2018-06-19T13:59:53.532Z,28.70
2018-06-19T14:02:23.301Z,29.00
2018-06-19T14:04:52.450Z,28.40
2018-06-19T14:07:24.337Z,28.20
2018-06-19T14:10:18.148Z,28.10
2018-06-19T14:12:58.338Z,28.60
2018-06-19T14:15:29.385Z,28.50
2018-06-19T14:17:59.702Z,28.50
2018-06-19T14:20:28.759Z,28.30
2018-06-19T14:22:57.860Z,28.30
2018-06-19T14:25:26.988Z,27.70
2018-06-19T14:27:57.630Z,27.30
2018-06-19T14:30:27.625Z,27.00
2018-06-19T14:32:57.830Z,27.10
2018-06-19T14:35:28.717Z,27.20
2018-06-19T14:37:57.797Z,27.50
2018-06-19T14:40:28.048Z,27.30
2018-06-19T14:42:58.312Z,27.30
2018-06-19T14:45:28.684Z,27.10
2018-06-19T14:47:57.720Z,27.10
2018-06-19T14:50:27.349Z,26.90
2018-06-19T14:52:58.604Z,26.60
2018-06-19T14:55:27.669Z,26.40
2018-06-19T14:58:03.219Z,26.20
2018-06-19T15:00:36.235Z,26.30
2018-06-19T15:03:07.573Z,26.70
2018-06-19T15:05:40.804Z,26.20
2018-06-19T15:08:11.916Z,26.50
2018-06-19T15:10:41.670Z,26.50
2018-06-19T15:13:12.304Z,26.50
2018-06-19T15:15:41.783Z,26.60
2018-06-19T15:18:12.745Z,26.50
2018-06-19T15:20:41.910Z,26.60
2018-06-19T15:23:12.830Z,26.30
2018-06-19T15:25:44.977Z,26.40
2018-06-19T15:28:14.492Z,26.30
2018-06-19T15:30:45.483Z,26.10
2018-06-19T15:33:15.814Z,26.00
2018-06-19T15:35:45.240Z,25.90
2018-06-19T15:38:15.152Z,25.90
2018-06-19T15:40:45.792Z,25.90
2018-06-19T15:43:17.178Z,26.00
2018-06-19T15:45:47.589Z,25.60
2018-06-19T15:48:20.272Z,25.70
2018-06-19T15:50:50.455Z,25.70
2018-06-19T15:53:19.819Z,25.90
2018-06-19T15:55:49.705Z,25.90
2018-06-19T15:58:18.888Z,26.00
2018-06-19T16:00:52.091Z,25.90
2018-06-19T16:03:24.431Z,25.90
2018-06-19T16:05:57.023Z,26.00
2018-06-19T16:08:26.051Z,25.70
2018-06-19T16:10:56.725Z,25.80
2018-06-19T16:13:26.759Z,26.10
2018-06-19T16:15:56.772Z,26.30
2018-06-19T16:18:28.009Z,26.30
2018-06-19T16:20:57.709Z,26.40
2018-06-19T16:23:27.572Z,26.30
2018-06-19T16:25:56.940Z,26.20
2018-06-19T16:28:28.132Z,26.10
2018-06-19T16:30:57.572Z,26.00
2018-06-19T16:33:28.777Z,26.20
2018-06-19T16:35:58.565Z,26.10
2018-06-19T16:38:28.732Z,26.00
2018-06-19T16:40:59.001Z,25.90
2018-06-19T16:43:31.927Z,25.90
2018-06-19T16:46:07.116Z,26.00
2018-06-19T16:48:37.192Z,26.00
2018-06-19T16:51:07.051Z,26.00
2018-06-19T16:53:37.196Z,25.80
2018-06-19T16:56:07.881Z,25.70
2018-06-19T16:58:40.629Z,25.60
2018-06-19T17:01:14.725Z,25.60
2018-06-19T17:03:45.256Z,25.50
2018-06-19T17:06:14.559Z,25.40
2018-06-19T17:08:43.690Z,25.40
2018-06-19T17:11:13.295Z,25.20
2018-06-19T17:13:42.395Z,25.10
2018-06-19T17:16:13.405Z,25.10
2018-06-19T17:18:43.485Z,25.00
2018-06-19T17:21:13.600Z,24.80
2018-06-19T17:23:42.843Z,24.70
2018-06-19T17:26:12.869Z,24.60
2018-06-19T17:28:45.985Z,24.60
2018-06-19T17:31:16.808Z,24.60
2018-06-19T17:33:46.573Z,24.60
2018-06-19T17:36:18.562Z,24.70
2018-06-19T17:38:48.690Z,24.80
2018-06-19T17:41:19.639Z,24.70
2018-06-19T17:43:48.701Z,24.70
2018-06-19T17:46:17.841Z,24.70
2018-06-19T17:48:48.528Z,24.60
2018-06-19T17:51:18.424Z,24.60
2018-06-19T17:53:47.664Z,24.70
2018-06-19T17:56:16.908Z,24.60
2018-06-19T17:58:47.221Z,24.60
2018-06-19T18:01:17.211Z,24.60
2018-06-19T18:03:47.387Z,24.50
2018-06-19T18:06:17.511Z,24.40
2018-06-19T18:08:47.534Z,24.30
2018-06-19T18:11:19.107Z,24.10
2018-06-19T18:13:49.555Z,23.90
2018-06-19T18:16:19.751Z,23.80
2018-06-19T18:18:49.054Z,23.70
2018-06-19T18:21:19.017Z,23.60
2018-06-19T18:23:49.590Z,23.40
2018-06-19T18:26:20.924Z,23.30
2018-06-19T18:28:51.347Z,23.30
2018-06-19T18:31:23.169Z,23.20
2018-06-19T18:33:54.597Z,23.10
2018-06-19T18:36:24.595Z,23.10
2018-06-19T18:38:54.804Z,23.00
2018-06-19T18:41:23.853Z,23.00
2018-06-19T18:43:52.767Z,22.90
2018-06-19T18:46:23.517Z,22.90
2018-06-19T18:48:57.991Z,22.80
2018-06-19T18:51:27.528Z,22.80
2018-06-19T18:53:58.783Z,22.70
2018-06-19T18:56:28.245Z,22.60
2018-06-19T18:58:59.855Z,22.40
2018-06-19T19:01:29.617Z,22.40
2018-06-19T19:04:02.001Z,22.20
2018-06-19T19:06:33.163Z,22.10
2018-06-19T19:09:04.908Z,21.90
2018-06-19T19:11:35.884Z,21.80
2018-06-19T19:14:07.157Z,21.70
2018-06-19T19:16:46.690Z,21.60
2018-06-19T19:19:18.706Z,21.40
2018-06-19T19:21:50.368Z,21.30
2018-06-19T19:24:21.086Z,21.30
2018-06-19T19:26:55.825Z,21.20
2018-06-19T19:29:31.029Z,21.20
2018-06-19T19:32:00.947Z,21.10
2018-06-19T19:34:32.264Z,21.10
2018-06-19T19:37:06.434Z,21.00
2018-06-19T19:39:38.681Z,21.00
2018-06-19T19:42:13.417Z,21.00
2018-06-19T19:44:43.317Z,21.00
2018-06-19T19:47:18.385Z,21.00
2018-06-19T19:49:48.656Z,21.00
2018-06-19T19:52:21.087Z,20.90
2018-06-19T19:54:50.815Z,21.50
2018-06-19T19:57:24.943Z,20.90
2018-06-19T19:59:56.008Z,20.80
2018-06-19T20:02:25.783Z,20.80
2018-06-19T20:04:57.847Z,20.70
2018-06-19T20:07:30.718Z,20.70
2018-06-19T20:10:01.602Z,20.60
2018-06-19T20:12:33.183Z,20.60
2018-06-19T20:15:03.232Z,20.50
2018-06-19T20:17:33.657Z,20.50
2018-06-19T20:20:05.546Z,20.40
2018-06-19T20:22:35.965Z,20.40
2018-06-19T20:25:06.928Z,20.30
2018-06-19T20:27:40.936Z,20.30
2018-06-19T20:30:13.848Z,20.30
2018-06-19T20:32:47.558Z,20.30
2018-06-19T20:35:18.941Z,20.20
2018-06-19T20:37:57.730Z,20.10
2018-06-19T20:40:31.029Z,20.10
2018-06-19T20:42:59.710Z,20.10
2018-06-19T20:45:28.611Z,20.00
2018-06-19T20:47:57.382Z,20.00
2018-06-19T20:50:26.027Z,19.90
2018-06-19T20:52:54.736Z,19.90
2018-06-19T20:55:23.390Z,19.90
2018-06-19T20:57:52.057Z,19.80
2018-06-19T21:00:20.693Z,19.80
2018-06-19T21:02:49.321Z,19.80
2018-06-19T21:05:17.967Z,19.70
2018-06-19T21:07:46.594Z,19.70
2018-06-19T21:10:15.231Z,19.60
2018-06-19T21:12:43.848Z,19.50
2018-06-19T21:15:12.599Z,19.50
2018-06-19T21:17:41.108Z,19.50
2018-06-19T21:20:09.587Z,19.40
2018-06-19T21:22:38.511Z,19.40
2018-06-19T21:25:07.015Z,19.30
2018-06-19T21:27:36.031Z,19.30
2018-06-19T21:30:04.997Z,19.30
2018-06-19T21:32:33.468Z,19.20
2018-06-19T21:35:01.961Z,19.20
2018-06-19T21:37:30.843Z,19.20
2018-06-19T21:39:59.335Z,19.20
2018-06-19T21:42:27.830Z,19.10
2018-06-19T21:44:56.307Z,19.10
2018-06-19T21:47:24.825Z,19.10
2018-06-19T21:49:53.823Z,19.00
2018-06-19T21:58:08.711Z,19.00
2018-06-19T22:00:37.195Z,19.00
2018-06-19T22:03:05.900Z,19.00
2018-06-19T22:05:34.436Z,19.00
2018-06-19T22:08:02.923Z,18.90
2018-06-19T22:10:31.456Z,19.00
2018-06-19T22:12:59.952Z,18.90
2018-06-19T22:15:28.443Z,19.00
2018-06-19T22:17:56.959Z,19.00
2018-06-19T22:20:25.431Z,18.90
2018-06-19T22:22:53.907Z,19.00
2018-06-19T22:25:22.384Z,18.90
2018-06-19T22:27:51.699Z,18.90
2018-06-19T22:30:20.187Z,19.00
2018-06-19T22:32:48.648Z,18.90
2018-06-19T22:35:17.176Z,18.90
2018-06-19T22:37:45.655Z,18.90
2018-06-19T22:40:14.138Z,18.90
2018-06-19T22:42:42.610Z,18.90
2018-06-19T22:45:11.115Z,18.90
2018-06-19T22:47:39.584Z,18.90
2018-06-19T22:50:08.098Z,18.90
2018-06-19T22:52:36.576Z,18.90
2018-06-19T22:55:05.143Z,18.80
2018-06-19T22:57:33.624Z,18.80
2018-06-19T23:00:02.115Z,18.80
2018-06-19T23:02:36.804Z,18.80
2018-06-19T23:05:05.346Z,18.80
2018-06-19T23:07:33.827Z,18.80
2018-06-19T23:10:02.346Z,18.70
2018-06-19T23:12:30.833Z,18.80
2018-06-19T23:14:59.327Z,18.70
2018-06-19T23:17:27.820Z,18.70
2018-06-19T23:19:56.331Z,18.70
2018-06-19T23:22:24.815Z,18.70
2018-06-19T23:24:53.316Z,18.70
2018-06-19T23:27:21.797Z,18.70
2018-06-19T23:29:50.283Z,18.60
2018-06-19T23:32:18.909Z,18.60
2018-06-19T23:34:47.402Z,18.50
2018-06-19T23:37:15.895Z,18.40
2018-06-19T23:39:44.360Z,18.30
2018-06-19T23:42:12.865Z,18.30
2018-06-19T23:44:41.323Z,18.20
2018-06-19T23:47:10.818Z,18.10
2018-06-19T23:49:39.326Z,18.00
2018-06-19T23:52:07.836Z,17.90
2018-06-19T23:54:36.305Z,17.80
2018-06-19T23:57:04.823Z,17.70
2018-06-19T23:59:33.270Z,17.60
